Time;durP1;ratioP1;P1;durP2;ratioP2;P2;SDS_P1;SDS_P2;PMS_P1;PMS_P2;Temp;Humidity;BMP_temperature;BMP_pressure;BME280_temperature;BME280_humidity;BME280_pressure;Samples;Min_cycle;Max_cycle;Signal;HPM_P1;HPM_P2
2022/10/04 00:00:58;;;;;;;0.10;0.10;;;;;;;;;;4998729;28;20246;-74
2022/10/04 00:03:27;;;;;;;0.10;0.10;;;;;;;;;;5011620;28;20196;-73
2022/10/04 00:05:54;;;;;;;0.10;0.10;;;;;;;;;;4999226;28;20246;-74
2022/10/04 00:08:24;;;;;;;0.10;0.10;;;;;;;;;;5011838;28;20211;-75
2022/10/04 00:11:00;;;;;;;0.10;0.10;;;;;;;;;;4998890;28;20244;-74
2022/10/04 00:13:29;;;;;;;0.10;0.10;;;;;;;;;;5011350;28;20217;-74
2022/10/04 00:15:55;;;;;;;0.10;0.10;;;;;;;;;;4999463;28;20300;-74
2022/10/04 00:18:23;;;;;;;0.10;0.10;;;;;;;;;;5012024;28;20218;-75
2022/10/04 00:20:58;;;;;;;0.10;0.10;;;;;;;;;;5001769;28;20491;-74
2022/10/04 00:23:29;;;;;;;0.10;0.10;;;;;;;;;;5015484;28;20422;-75
2022/10/04 00:25:56;;;;;;;0.10;0.10;;;;;;;;;;5003031;28;20264;-74
2022/10/04 00:28:29;;;;;;;0.10;0.10;;;;;;;;;;5014736;28;20219;-74
2022/10/04 00:31:23;;;;;;;0.10;0.10;;;;;;;;;;5002886;28;20253;-75
2022/10/04 00:33:50;;;;;;;0.10;0.10;;;;;;;;;;5011690;28;20553;-75
2022/10/04 00:36:37;;;;;;;0.10;0.10;;;;;;;;;;5005466;28;20281;-74
2022/10/04 00:39:31;;;;;;;0.10;0.10;;;;;;;;;;5009864;28;20207;-75
2022/10/04 00:42:02;;;;;;;0.10;0.10;;;;;;;;;;5010254;28;20247;-74
2022/10/04 00:44:33;;;;;;;0.10;0.10;;;;;;;;;;5005715;28;20237;-74
2022/10/04 00:47:01;;;;;;;0.10;0.10;;;;;;;;;;5010540;28;20244;-74
2022/10/04 00:49:29;;;;;;;0.10;0.10;;;;;;;;;;5006310;28;20465;-75
2022/10/04 00:51:59;;;;;;;0.10;0.10;;;;;;;;;;5009873;28;20240;-74
2022/10/04 00:54:30;;;;;;;0.10;0.10;;;;;;;;;;5006058;28;20206;-75
2022/10/04 00:56:58;;;;;;;0.10;0.10;;;;;;;;;;5010258;28;20301;-74
2022/10/04 00:59:32;;;;;;;0.10;0.10;;;;;;;;;;5006795;28;20484;-74
2022/10/04 01:02:02;;;;;;;0.10;0.10;;;;;;;;;;5009662;28;20239;-73
2022/10/04 01:04:33;;;;;;;0.10;0.10;;;;;;;;;;5006001;28;20195;-76
2022/10/04 01:07:01;;;;;;;0.10;0.10;;;;;;;;;;4997359;28;20233;-74
2022/10/04 01:09:29;;;;;;;0.10;0.10;;;;;;;;;;5005719;28;20206;-74
2022/10/04 01:11:59;;;;;;;0.10;0.10;;;;;;;;;;5009445;28;20302;-75
2022/10/04 01:14:29;;;;;;;0.10;0.10;;;;;;;;;;5006267;28;20288;-75
2022/10/04 01:16:56;;;;;;;0.10;0.10;;;;;;;;;;5009871;28;20591;-75
2022/10/04 01:19:29;;;;;;;0.10;0.10;;;;;;;;;;5006881;28;20213;-75
2022/10/04 01:21:59;;;;;;;0.10;0.10;;;;;;;;;;5009702;28;20235;-74
2022/10/04 01:24:32;;;;;;;0.10;0.10;;;;;;;;;;5006835;28;20295;-74
2022/10/04 01:26:59;;;;;;;0.10;0.10;;;;;;;;;;5010190;28;20248;-74
2022/10/04 01:29:26;;;;;;;0.10;0.10;;;;;;;;;;5006441;28;20430;-75
2022/10/04 01:31:54;;;;;;;0.10;0.10;;;;;;;;;;5008950;28;20241;-75
2022/10/04 01:34:21;;;;;;;0.10;0.10;;;;;;;;;;5006777;28;20233;-74
2022/10/04 01:36:48;;;;;;;0.10;0.10;;;;;;;;;;5008796;28;20244;-74
2022/10/04 01:39:15;;;;;;;0.10;0.10;;;;;;;;;;5007647;28;20398;-74
2022/10/04 01:41:46;;;;;;;0.03;0.03;;;;;;;;;;5007868;28;20242;-76
2022/10/04 01:44:16;;;;;;;0.10;0.10;;;;;;;;;;5008476;28;20204;-74
2022/10/04 01:46:43;;;;;;;0.10;0.10;;;;;;;;;;5007738;28;20248;-74
2022/10/04 01:49:10;;;;;;;0.10;0.10;;;;;;;;;;5008267;28;20216;-76
2022/10/04 01:51:39;;;;;;;0.10;0.10;;;;;;;;;;5006854;28;20576;-74
2022/10/04 01:54:08;;;;;;;0.10;0.10;;;;;;;;;;5008519;28;20213;-74
2022/10/04 01:56:40;;;;;;;0.10;0.10;;;;;;;;;;5006707;28;20247;-74
2022/10/04 01:59:13;;;;;;;0.10;0.10;;;;;;;;;;5008030;28;20236;-76
2022/10/04 02:01:43;;;;;;;0.10;0.10;;;;;;;;;;5007064;28;20247;-75
2022/10/04 02:04:12;;;;;;;0.10;0.10;;;;;;;;;;5008143;28;20213;-74
2022/10/04 02:06:40;;;;;;;0.10;0.10;;;;;;;;;;5007499;28;20243;-74
2022/10/04 02:09:09;;;;;;;0.10;0.10;;;;;;;;;;5008668;28;20209;-75
2022/10/04 02:11:36;;;;;;;0.10;0.10;;;;;;;;;;5006463;28;20244;-75
2022/10/04 02:14:04;;;;;;;0.10;0.10;;;;;;;;;;5008598;28;20528;-74
2022/10/04 02:16:35;;;;;;;0.10;0.10;;;;;;;;;;5005804;28;20250;-76
2022/10/04 02:19:02;;;;;;;0.10;0.10;;;;;;;;;;5008834;28;20204;-75
2022/10/04 02:21:29;;;;;;;0.10;0.10;;;;;;;;;;5005721;28;20252;-76
2022/10/04 02:23:56;;;;;;;0.10;0.10;;;;;;;;;;5008343;28;20448;-75
2022/10/04 02:26:22;;;;;;;0.10;0.10;;;;;;;;;;5003725;28;20247;-77
2022/10/04 02:28:48;;;;;;;0.10;0.10;;;;;;;;;;5009026;28;20211;-78
2022/10/04 02:34:05;;;;;;;0.10;0.10;;;;;;;;;;5007218;28;20195;-77
2022/10/04 02:36:32;;;;;;;0.10;0.10;;;;;;;;;;5004422;28;20467;-77
2022/10/04 02:39:01;;;;;;;0.10;0.10;;;;;;;;;;5007752;28;20225;-77
2022/10/04 02:41:30;;;;;;;0.10;0.10;;;;;;;;;;5003861;28;20264;-77
2022/10/04 02:44:00;;;;;;;0.10;0.10;;;;;;;;;;5007288;28;20233;-78
2022/10/04 02:46:31;;;;;;;0.10;0.10;;;;;;;;;;5003636;28;20246;-77
2022/10/04 02:48:59;;;;;;;0.10;0.10;;;;;;;;;;5007851;28;20203;-77
2022/10/04 02:51:32;;;;;;;0.10;0.10;;;;;;;;;;5003439;28;20312;-77
2022/10/04 02:54:02;;;;;;;0.10;0.10;;;;;;;;;;5007561;28;20201;-77
2022/10/04 02:56:28;;;;;;;0.10;0.10;;;;;;;;;;5003972;28;20309;-77
2022/10/04 02:58:55;;;;;;;0.10;0.10;;;;;;;;;;5007983;28;20425;-76
2022/10/04 03:01:27;;;;;;;0.10;0.10;;;;;;;;;;5002884;28;20300;-77
2022/10/04 03:03:54;;;;;;;0.10;0.10;;;;;;;;;;5007536;28;20277;-77
2022/10/04 03:06:22;;;;;;;0.10;0.10;;;;;;;;;;5002503;28;20238;-77
2022/10/04 03:08:51;;;;;;;0.10;0.10;;;;;;;;;;5008305;28;20213;-76
2022/10/04 03:11:19;;;;;;;0.10;0.10;;;;;;;;;;5002323;28;20252;-74
2022/10/04 03:13:47;;;;;;;0.10;0.10;;;;;;;;;;5008857;28;20210;-73
2022/10/04 03:16:14;;;;;;;0.10;0.10;;;;;;;;;;5001666;28;20254;-73
2022/10/04 03:18:40;;;;;;;0.10;0.10;;;;;;;;;;5009633;28;20202;-75
2022/10/04 03:21:10;;;;;;;0.10;0.10;;;;;;;;;;5001884;28;20248;-74
2022/10/04 03:23:37;;;;;;;0.10;0.10;;;;;;;;;;5010716;28;20321;-73
2022/10/04 03:26:10;;;;;;;0.10;0.10;;;;;;;;;;5001230;28;20295;-75
2022/10/04 03:28:41;;;;;;;0.10;0.10;;;;;;;;;;5011296;28;20194;-75
2022/10/04 03:31:07;;;;;;;0.10;0.10;;;;;;;;;;5002297;28;20238;-75
2022/10/04 03:33:34;;;;;;;0.10;0.10;;;;;;;;;;5011304;28;20213;-74
2022/10/04 03:36:01;;;;;;;0.10;0.10;;;;;;;;;;5000366;28;20255;-74
2022/10/04 03:38:28;;;;;;;0.00;0.00;;;;;;;;;;5012468;28;20206;-75
2022/10/04 03:40:56;;;;;;;0.20;0.20;;;;;;;;;;4999850;28;20264;-75
2022/10/04 03:43:25;;;;;;;0.10;0.10;;;;;;;;;;5012520;28;20301;-74
2022/10/04 03:45:52;;;;;;;0.10;0.10;;;;;;;;;;5000188;28;20242;-73
2022/10/04 03:48:25;;;;;;;0.10;0.10;;;;;;;;;;5011909;28;20369;-73
2022/10/04 03:50:52;;;;;;;0.10;0.10;;;;;;;;;;4998538;28;20267;-73
2022/10/04 03:53:27;;;;;;;0.10;0.10;;;;;;;;;;5012411;28;20210;-73
2022/10/04 03:55:53;;;;;;;0.10;0.10;;;;;;;;;;5002696;28;20242;-73
2022/10/04 03:58:20;;;;;;;0.10;0.10;;;;;;;;;;5015252;28;20213;-73
2022/10/04 04:00:56;;;;;;;0.10;0.10;;;;;;;;;;5001070;28;20256;-74
2022/10/04 04:03:25;;;;;;;0.10;0.10;;;;;;;;;;5014961;28;20221;-72
2022/10/04 04:05:52;;;;;;;0.10;0.10;;;;;;;;;;5001929;28;20286;-73
2022/10/04 04:08:23;;;;;;;0.10;0.10;;;;;;;;;;5015924;28;20205;-73
2022/10/04 04:10:51;;;;;;;0.10;0.10;;;;;;;;;;5002229;28;20428;-73
2022/10/04 04:13:21;;;;;;;0.10;0.10;;;;;;;;;;5015537;28;20242;-73
2022/10/04 04:15:49;;;;;;;0.10;0.10;;;;;;;;;;5001913;28;20248;-74
2022/10/04 04:18:18;;;;;;;0.10;0.10;;;;;;;;;;5015865;28;20219;-73
2022/10/04 04:20:48;;;;;;;0.10;0.10;;;;;;;;;;5001431;28;20250;-72
2022/10/04 04:23:21;;;;;;;0.10;0.10;;;;;;;;;;5015776;28;20245;-73
2022/10/04 04:25:55;;;;;;;0.10;0.10;;;;;;;;;;5001481;28;20244;-73
2022/10/04 04:28:26;;;;;;;0.10;0.10;;;;;;;;;;5014696;28;20320;-73
2022/10/04 04:30:56;;;;;;;0.10;0.10;;;;;;;;;;5002218;28;20244;-73
2022/10/04 04:33:26;;;;;;;0.10;0.10;;;;;;;;;;5014343;28;20205;-74
2022/10/04 04:35:56;;;;;;;0.10;0.10;;;;;;;;;;5002129;28;20267;-74
2022/10/04 04:38:23;;;;;;;0.10;0.10;;;;;;;;;;5014327;28;20217;-73
2022/10/04 04:40:54;;;;;;;0.10;0.10;;;;;;;;;;5001720;28;20485;-73
2022/10/04 04:43:21;;;;;;;0.10;0.10;;;;;;;;;;5014508;28;20226;-72
2022/10/04 04:45:48;;;;;;;0.00;0.00;;;;;;;;;;5001021;28;20290;-73
2022/10/04 04:48:17;;;;;;;0.10;0.10;;;;;;;;;;5015279;28;20211;-74
2022/10/04 04:50:48;;;;;;;0.10;0.10;;;;;;;;;;5000454;28;20240;-73
2022/10/04 04:53:16;;;;;;;0.10;0.10;;;;;;;;;;5015137;28;20202;-73
2022/10/04 04:55:43;;;;;;;0.10;0.10;;;;;;;;;;5000477;28;20269;-73
2022/10/04 04:58:14;;;;;;;0.10;0.10;;;;;;;;;;5015747;28;20214;-73
2022/10/04 05:00:41;;;;;;;0.10;0.10;;;;;;;;;;4999946;28;20298;-73
2022/10/04 05:03:17;;;;;;;0.10;0.10;;;;;;;;;;5015943;28;20259;-73
2022/10/04 05:05:46;;;;;;;0.10;0.10;;;;;;;;;;4999564;28;20577;-73
2022/10/04 05:08:14;;;;;;;0.10;0.10;;;;;;;;;;5015400;28;20413;-74
2022/10/04 05:10:41;;;;;;;0.10;0.10;;;;;;;;;;4999917;28;20593;-72
2022/10/04 05:13:09;;;;;;;0.10;0.10;;;;;;;;;;5016017;28;20276;-74
2022/10/04 05:15:35;;;;;;;0.10;0.10;;;;;;;;;;4998919;28;20576;-73
2022/10/04 05:18:02;;;;;;;0.10;0.10;;;;;;;;;;5016236;28;20216;-72
2022/10/04 05:20:33;;;;;;;0.10;0.10;;;;;;;;;;4998232;28;20289;-73
2022/10/04 05:23:00;;;;;;;0.10;0.10;;;;;;;;;;5016221;28;20415;-73
2022/10/04 05:25:30;;;;;;;0.07;0.07;;;;;;;;;;4998107;28;20252;-73
2022/10/04 05:27:56;;;;;;;0.10;0.10;;;;;;;;;;5016768;28;20220;-73
2022/10/04 05:30:31;;;;;;;0.10;0.10;;;;;;;;;;4997059;28;20206;-73
2022/10/04 05:33:00;;;;;;;0.10;0.10;;;;;;;;;;5016224;28;20206;-73
2022/10/04 05:35:26;;;;;;;0.10;0.10;;;;;;;;;;4997670;28;20250;-77
2022/10/04 05:37:57;;;;;;;0.10;0.10;;;;;;;;;;5016763;28;20417;-76
2022/10/04 05:40:31;;;;;;;0.10;0.10;;;;;;;;;;4997450;28;20459;-77
2022/10/04 05:42:58;;;;;;;0.10;0.10;;;;;;;;;;5016524;28;20232;-78
2022/10/04 05:45:26;;;;;;;0.10;0.10;;;;;;;;;;4997162;28;20271;-76
2022/10/04 05:47:53;;;;;;;0.10;0.10;;;;;;;;;;5016832;28;20281;-76
2022/10/04 05:50:22;;;;;;;0.10;0.10;;;;;;;;;;4996558;28;20208;-76
2022/10/04 05:52:50;;;;;;;0.10;0.10;;;;;;;;;;5017836;28;20306;-77
2022/10/04 05:55:28;;;;;;;0.10;0.10;;;;;;;;;;4996026;28;20196;-77
2022/10/04 05:58:06;;;;;;;0.10;0.10;;;;;;;;;;5016613;28;20500;-76
2022/10/04 06:00:36;;;;;;;0.10;0.10;;;;;;;;;;4997967;28;20244;-77
2022/10/04 06:03:13;;;;;;;0.10;0.10;;;;;;;;;;5015523;28;20231;-77
2022/10/04 06:05:47;;;;;;;0.10;0.10;;;;;;;;;;4998632;28;20245;-76
2022/10/04 06:08:16;;;;;;;0.10;0.10;;;;;;;;;;5013927;28;20208;-77
2022/10/04 06:10:48;;;;;;;0.10;0.10;;;;;;;;;;4999181;28;20254;-76
2022/10/04 06:13:19;;;;;;;0.10;0.10;;;;;;;;;;5013372;28;20220;-76
2022/10/04 06:15:55;;;;;;;0.10;0.10;;;;;;;;;;4999695;28;20284;-76
2022/10/04 06:18:29;;;;;;;0.10;0.10;;;;;;;;;;5011927;28;20283;-77
2022/10/04 06:21:06;;;;;;;0.10;0.10;;;;;;;;;;5000406;28;20303;-76
2022/10/04 06:23:35;;;;;;;0.10;0.10;;;;;;;;;;5011509;28;20221;-76
2022/10/04 06:26:04;;;;;;;0.10;0.10;;;;;;;;;;5001137;28;20263;-77
2022/10/04 06:28:31;;;;;;;0.10;0.10;;;;;;;;;;5011658;28;20207;-77
2022/10/04 06:31:17;;;;;;;0.00;0.00;;;;;;;;;;5000686;28;20524;-76
2022/10/04 06:33:53;;;;;;;0.10;0.10;;;;;;;;;;5009390;28;20233;-76
2022/10/04 06:36:34;;;;;;;0.10;0.10;;;;;;;;;;5003239;28;20244;-77
2022/10/04 06:39:10;;;;;;;0.10;0.10;;;;;;;;;;5004496;28;20298;-77
2022/10/04 06:41:45;;;;;;;0.10;0.10;;;;;;;;;;5005191;28;20261;-76
2022/10/04 06:44:30;;;;;;;0.10;0.10;;;;;;;;;;5005862;28;20218;-77
2022/10/04 06:47:04;;;;;;;0.10;0.10;;;;;;;;;;5008023;28;20257;-76
2022/10/04 06:49:33;;;;;;;0.10;0.10;;;;;;;;;;5003354;28;20212;-78
2022/10/04 06:52:14;;;;;;;0.10;0.10;;;;;;;;;;5007860;28;20245;-77
2022/10/04 06:54:48;;;;;;;0.10;0.10;;;;;;;;;;4990869;28;20575;-76
2022/10/04 06:57:23;;;;;;;0.10;0.10;;;;;;;;;;5008466;28;20293;-78
2022/10/04 06:59:58;;;;;;;0.10;0.10;;;;;;;;;;5003493;28;20232;-77
2022/10/04 07:02:26;;;;;;;0.10;0.10;;;;;;;;;;5008778;28;20330;-77
2022/10/04 07:04:56;;;;;;;0.10;0.10;;;;;;;;;;5002969;28;20232;-77
2022/10/04 07:07:25;;;;;;;0.10;0.10;;;;;;;;;;5008530;28;20241;-78
2022/10/04 07:09:54;;;;;;;0.10;0.10;;;;;;;;;;5003278;28;20241;-78
2022/10/04 07:12:22;;;;;;;0.10;0.10;;;;;;;;;;5007951;28;20248;-77
2022/10/04 07:14:50;;;;;;;0.10;0.10;;;;;;;;;;5003260;28;20205;-77
2022/10/04 07:17:18;;;;;;;0.10;0.10;;;;;;;;;;5008437;28;20251;-78
2022/10/04 07:19:46;;;;;;;0.10;0.10;;;;;;;;;;5002843;28;20209;-78
2022/10/04 07:22:14;;;;;;;0.10;0.10;;;;;;;;;;5008361;28;20341;-78
2022/10/04 07:25:02;;;;;;;0.10;0.10;;;;;;;;;;5003042;28;20229;-78
2022/10/04 07:27:32;;;;;;;0.10;0.10;;;;;;;;;;4988973;28;20239;-78
2022/10/04 07:29:59;;;;;;;0.10;0.10;;;;;;;;;;5002753;28;20248;-76
2022/10/04 07:32:27;;;;;;;0.10;0.10;;;;;;;;;;5008293;28;20250;-76
2022/10/04 07:34:57;;;;;;;0.03;0.03;;;;;;;;;;5002703;28;20209;-76
2022/10/04 07:37:25;;;;;;;0.10;0.10;;;;;;;;;;5007845;28;20242;-77
2022/10/04 07:39:56;;;;;;;0.10;0.10;;;;;;;;;;5002506;28;20206;-76
2022/10/04 07:42:26;;;;;;;0.10;0.10;;;;;;;;;;5008194;28;20245;-77
2022/10/04 07:45:01;;;;;;;0.10;0.10;;;;;;;;;;5002511;28;20226;-77
2022/10/04 07:47:28;;;;;;;0.10;0.10;;;;;;;;;;5008076;28;20524;-78
2022/10/04 07:49:57;;;;;;;0.10;0.10;;;;;;;;;;5002977;28;20298;-76
2022/10/04 07:52:29;;;;;;;0.10;0.10;;;;;;;;;;5008189;28;20257;-78
2022/10/04 07:54:59;;;;;;;0.00;0.00;;;;;;;;;;5002668;28;20193;-77
2022/10/04 07:57:29;;;;;;;0.10;0.10;;;;;;;;;;5008120;28;20305;-77
2022/10/04 07:59:59;;;;;;;0.10;0.10;;;;;;;;;;5002714;28;20228;-77
2022/10/04 08:02:32;;;;;;;0.10;0.10;;;;;;;;;;5008017;28;20241;-76
2022/10/04 08:05:04;;;;;;;0.10;0.10;;;;;;;;;;5002731;28;20516;-77
2022/10/04 08:07:36;;;;;;;0.10;0.10;;;;;;;;;;4991367;28;20215;-76
2022/10/04 08:10:07;;;;;;;0.10;0.10;;;;;;;;;;5002394;28;20261;-76
2022/10/04 08:12:37;;;;;;;0.10;0.10;;;;;;;;;;4991353;28;20207;-78
2022/10/04 08:15:15;;;;;;;0.10;0.10;;;;;;;;;;5002743;28;20206;-77
2022/10/04 08:17:48;;;;;;;0.10;0.10;;;;;;;;;;5002459;28;20213;-76
2022/10/04 08:20:26;;;;;;;0.10;0.10;;;;;;;;;;4993690;28;20197;-76
2022/10/04 08:23:00;;;;;;;0.10;0.10;;;;;;;;;;5014933;28;20570;-78
2022/10/04 08:25:31;;;;;;;0.10;0.10;;;;;;;;;;4994961;28;20305;-78
2022/10/04 08:30:53;;;;;;;0.10;0.10;;;;;;;;;;4997651;28;20478;-77
2022/10/04 08:33:24;;;;;;;0.10;0.10;;;;;;;;;;5011527;28;20235;-77
2022/10/04 08:35:53;;;;;;;0.10;0.10;;;;;;;;;;4998167;28;20261;-77
2022/10/04 08:38:35;;;;;;;0.10;0.10;;;;;;;;;;5010982;28;20214;-76
2022/10/04 08:41:19;;;;;;;0.10;0.10;;;;;;;;;;5001112;28;20250;-76
2022/10/04 08:44:01;;;;;;;0.10;0.10;;;;;;;;;;4976048;28;20210;-77
2022/10/04 08:46:42;;;;;;;0.10;0.10;;;;;;;;;;5006376;28;20259;-78
2022/10/04 08:49:24;;;;;;;0.10;0.10;;;;;;;;;;5005492;28;20276;-77
2022/10/04 08:52:12;;;;;;;0.10;0.10;;;;;;;;;;5009100;28;20493;-77
2022/10/04 08:54:48;;;;;;;0.10;0.10;;;;;;;;;;5005734;28;20429;-77
2022/10/04 08:57:29;;;;;;;0.10;0.10;;;;;;;;;;5011252;28;20453;-77
2022/10/04 09:00:19;;;;;;;0.10;0.10;;;;;;;;;;5005878;28;20619;-77
2022/10/04 09:03:04;;;;;;;0.10;0.10;;;;;;;;;;5005543;28;20199;-76
2022/10/04 09:05:37;;;;;;;0.10;0.10;;;;;;;;;;5001714;28;20242;-76
2022/10/04 09:08:22;;;;;;;0.10;0.10;;;;;;;;;;5036508;28;20210;-76
2022/10/04 09:10:56;;;;;;;0.10;0.10;;;;;;;;;;5020013;28;20390;-76
2022/10/04 09:13:38;;;;;;;0.10;0.10;;;;;;;;;;5033830;28;20195;-76
2022/10/04 09:16:17;;;;;;;0.10;0.10;;;;;;;;;;5022015;28;20248;-77
2022/10/04 09:18:51;;;;;;;0.10;0.10;;;;;;;;;;5030687;28;20195;-76
2022/10/04 09:21:38;;;;;;;0.10;0.10;;;;;;;;;;5023524;28;20291;-78
2022/10/04 09:24:19;;;;;;;0.10;0.10;;;;;;;;;;5028379;28;20298;-77
2022/10/04 09:26:47;;;;;;;0.10;0.10;;;;;;;;;;5025227;28;20238;-76
2022/10/04 09:29:40;;;;;;;0.00;0.00;;;;;;;;;;5027166;28;20313;-78
2022/10/04 09:32:25;;;;;;;0.10;0.10;;;;;;;;;;5029663;28;20487;-75
2022/10/04 09:35:02;;;;;;;0.10;0.10;;;;;;;;;;5024631;28;20355;-78
2022/10/04 09:37:37;;;;;;;0.00;0.00;;;;;;;;;;5029166;28;20242;-76
2022/10/04 09:40:14;;;;;;;0.10;0.10;;;;;;;;;;5024171;28;20202;-77
2022/10/04 09:42:48;;;;;;;0.00;0.00;;;;;;;;;;5024330;28;20226;-76
2022/10/04 09:45:29;;;;;;;0.10;0.10;;;;;;;;;;5013908;28;20268;-77
2022/10/04 09:48:06;;;;;;;0.10;0.10;;;;;;;;;;5017065;28;20208;-77
2022/10/04 09:50:47;;;;;;;0.10;0.10;;;;;;;;;;4998162;28;20449;-77
2022/10/04 09:53:21;;;;;;;0.10;0.10;;;;;;;;;;5014379;28;20393;-78
2022/10/04 09:56:08;;;;;;;0.10;0.10;;;;;;;;;;4999697;28;20250;-67
2022/10/04 09:58:45;;;;;;;0.10;0.10;;;;;;;;;;5011544;28;20228;-67
2022/10/04 10:01:15;;;;;;;0.10;0.10;;;;;;;;;;5002812;28;20266;-68
2022/10/04 10:03:49;;;;;;;0.10;0.10;;;;;;;;;;5010581;28;20215;-67
2022/10/04 10:06:25;;;;;;;0.10;0.10;;;;;;;;;;5002903;28;20307;-67
2022/10/04 10:09:00;;;;;;;0.10;0.10;;;;;;;;;;5009506;28;20202;-67
2022/10/04 10:14:27;;;;;;;0.10;0.10;;;;;;;;;;5006436;28;20254;-68
2022/10/04 10:17:02;;;;;;;0.10;0.10;;;;;;;;;;5007960;28;20244;-67
2022/10/04 10:19:42;;;;;;;0.00;0.00;;;;;;;;;;5004480;28;20197;-66
2022/10/04 10:22:16;;;;;;;0.10;0.10;;;;;;;;;;5009245;28;20248;-69
2022/10/04 10:24:53;;;;;;;0.10;0.10;;;;;;;;;;5004387;28;20214;-67
2022/10/04 10:27:29;;;;;;;0.10;0.10;;;;;;;;;;5009251;28;20249;-68
2022/10/04 10:30:14;;;;;;;0.10;0.10;;;;;;;;;;5004382;28;20202;-68
2022/10/04 10:32:51;;;;;;;0.10;0.10;;;;;;;;;;5003987;28;20289;-68
2022/10/04 10:35:35;;;;;;;0.10;0.10;;;;;;;;;;4995686;28;20383;-68
2022/10/04 10:38:19;;;;;;;0.10;0.10;;;;;;;;;;5014873;28;20221;-68
2022/10/04 10:40:58;;;;;;;0.10;0.10;;;;;;;;;;4999534;28;20313;-67
2022/10/04 10:43:31;;;;;;;0.10;0.10;;;;;;;;;;5012308;28;20201;-68
2022/10/04 10:46:10;;;;;;;0.10;0.10;;;;;;;;;;5000456;28;20436;-67
2022/10/04 10:48:48;;;;;;;0.10;0.10;;;;;;;;;;5010640;28;20202;-67
2022/10/04 10:51:19;;;;;;;0.10;0.10;;;;;;;;;;5002417;28;20296;-67
2022/10/04 10:53:58;;;;;;;0.10;0.10;;;;;;;;;;5009131;28;20228;-68
2022/10/04 10:56:34;;;;;;;0.05;0.05;;;;;;;;;;5003590;28;20263;-68
2022/10/04 10:59:19;;;;;;;0.10;0.10;;;;;;;;;;5007560;28;20227;-68
2022/10/04 11:01:59;;;;;;;0.10;0.10;;;;;;;;;;5006431;28;20241;-67
2022/10/04 11:04:44;;;;;;;0.03;0.03;;;;;;;;;;5003319;28;20225;-68
2022/10/04 11:07:22;;;;;;;0.10;0.10;;;;;;;;;;5008737;28;20249;-68
2022/10/04 11:10:03;;;;;;;0.00;0.00;;;;;;;;;;5003484;28;20194;-69
2022/10/04 11:12:57;;;;;;;0.05;0.05;;;;;;;;;;4992100;28;20219;-66
2022/10/04 11:15:47;;;;;;;0.05;0.05;;;;;;;;;;4971782;28;20207;-67
2022/10/04 11:18:33;;;;;;;0.10;0.10;;;;;;;;;;4948719;28;20508;-67
2022/10/04 11:21:09;;;;;;;0.10;0.10;;;;;;;;;;5000019;28;20246;-67
2022/10/04 11:23:53;;;;;;;0.30;0.30;;;;;;;;;;5010414;28;20194;-68
2022/10/04 11:26:38;;;;;;;0.10;0.10;;;;;;;;;;4972329;28;20242;-68
2022/10/04 11:29:09;;;;;;;0.00;0.00;;;;;;;;;;5002472;28;20212;-67
2022/10/04 11:31:44;;;;;;;0.10;0.10;;;;;;;;;;5004497;28;20269;-67
2022/10/04 11:34:26;;;;;;;0.08;0.08;;;;;;;;;;5005495;28;20199;-68
2022/10/04 11:37:01;;;;;;;0.10;0.10;;;;;;;;;;5004527;28;20546;-67
2022/10/04 11:39:45;;;;;;;0.10;0.10;;;;;;;;;;5003451;28;20198;-67
2022/10/04 11:42:18;;;;;;;0.10;0.10;;;;;;;;;;4985370;28;20572;-67
2022/10/04 11:44:58;;;;;;;0.30;0.30;;;;;;;;;;5002775;28;20239;-67
2022/10/04 11:47:29;;;;;;;0.10;0.10;;;;;;;;;;5008358;28;20260;-69
2022/10/04 11:50:03;;;;;;;0.10;0.10;;;;;;;;;;5003088;28;20221;-69
2022/10/04 11:52:55;;;;;;;0.10;0.10;;;;;;;;;;5008752;28;20252;-67
2022/10/04 11:55:34;;;;;;;0.00;0.00;;;;;;;;;;4995361;28;20467;-68
2022/10/04 11:58:04;;;;;;;0.00;0.00;;;;;;;;;;5014138;28;20378;-68
2022/10/04 12:00:44;;;;;;;0.10;0.10;;;;;;;;;;4995683;28;20449;-67
2022/10/04 12:03:22;;;;;;;0.00;0.00;;;;;;;;;;5013325;28;20273;-67
2022/10/04 12:05:54;;;;;;;0.03;0.03;;;;;;;;;;4998329;28;20241;-68
2022/10/04 12:08:26;;;;;;;0.10;0.10;;;;;;;;;;5011410;28;20187;-68
2022/10/04 12:11:12;;;;;;;0.10;0.10;;;;;;;;;;4998886;28;20241;-67
2022/10/04 12:13:48;;;;;;;0.10;0.10;;;;;;;;;;5009394;28;20346;-67
2022/10/04 12:16:28;;;;;;;0.10;0.10;;;;;;;;;;5005357;28;20520;-67
2022/10/04 12:19:19;;;;;;;0.10;0.10;;;;;;;;;;5011045;28;20504;-68
2022/10/04 12:21:57;;;;;;;0.10;0.10;;;;;;;;;;5009161;28;20252;-67
2022/10/04 12:24:56;;;;;;;0.10;0.10;;;;;;;;;;5007692;28;20395;-67
2022/10/04 12:27:39;;;;;;;0.10;0.10;;;;;;;;;;4973974;28;20248;-67
2022/10/04 12:30:27;;;;;;;0.10;0.10;;;;;;;;;;5016205;28;20212;-68
2022/10/04 12:33:08;;;;;;;0.08;0.08;;;;;;;;;;5026204;28;20255;-68
2022/10/04 12:35:42;;;;;;;0.10;0.10;;;;;;;;;;5012970;28;20446;-67
2022/10/04 12:38:16;;;;;;;0.10;0.10;;;;;;;;;;5016183;28;20294;-67
2022/10/04 12:40:44;;;;;;;0.10;0.10;;;;;;;;;;5001034;28;20261;-67
2022/10/04 12:43:17;;;;;;;0.10;0.10;;;;;;;;;;5016230;28;20207;-67
2022/10/04 12:45:51;;;;;;;0.10;0.10;;;;;;;;;;5000723;28;20244;-67
2022/10/04 12:48:23;;;;;;;0.10;0.10;;;;;;;;;;5015182;28;20407;-67
2022/10/04 12:50:53;;;;;;;0.03;0.03;;;;;;;;;;5001681;28;20440;-67
2022/10/04 12:53:30;;;;;;;0.10;0.10;;;;;;;;;;5014773;28;20214;-68
2022/10/04 12:56:04;;;;;;;0.08;0.08;;;;;;;;;;5002173;28;20244;-68
2022/10/04 12:58:42;;;;;;;0.10;0.10;;;;;;;;;;5013177;28;20232;-68
2022/10/04 13:01:15;;;;;;;0.00;0.00;;;;;;;;;;5003214;28;20295;-67
2022/10/04 13:03:59;;;;;;;0.10;0.10;;;;;;;;;;5011948;28;20429;-67
2022/10/04 13:06:30;;;;;;;0.10;0.10;;;;;;;;;;5005305;28;20246;-67
2022/10/04 13:09:02;;;;;;;0.10;0.10;;;;;;;;;;5010035;28;20233;-67
2022/10/04 13:11:41;;;;;;;0.10;0.10;;;;;;;;;;5005782;28;20245;-67
2022/10/04 13:14:25;;;;;;;0.10;0.10;;;;;;;;;;5008476;28;20194;-67
2022/10/04 13:16:56;;;;;;;0.10;0.10;;;;;;;;;;5008579;28;20238;-68
2022/10/04 13:19:24;;;;;;;0.10;0.10;;;;;;;;;;5006682;28;20288;-67
2022/10/04 13:21:58;;;;;;;0.00;0.00;;;;;;;;;;5008427;28;20257;-68
2022/10/04 13:24:28;;;;;;;0.10;0.10;;;;;;;;;;5006277;28;20210;-67
2022/10/04 13:26:58;;;;;;;0.10;0.10;;;;;;;;;;5008436;28;20248;-67
2022/10/04 13:29:28;;;;;;;0.10;0.10;;;;;;;;;;5006242;28;20275;-67
2022/10/04 13:31:57;;;;;;;0.10;0.10;;;;;;;;;;5008753;28;20521;-68
2022/10/04 13:34:29;;;;;;;0.10;0.10;;;;;;;;;;5006121;28;20209;-68
2022/10/04 13:37:09;;;;;;;0.00;0.00;;;;;;;;;;5008758;28;20522;-68
2022/10/04 13:39:44;;;;;;;0.03;0.03;;;;;;;;;;5005000;28;20194;-68
2022/10/04 13:42:16;;;;;;;0.10;0.10;;;;;;;;;;5010137;28;20261;-67
2022/10/04 13:45:01;;;;;;;0.10;0.10;;;;;;;;;;5004758;28;20203;-67
2022/10/04 13:47:51;;;;;;;0.10;0.10;;;;;;;;;;5010001;28;20248;-67
2022/10/04 13:50:29;;;;;;;0.10;0.10;;;;;;;;;;4996651;28;20510;-67
2022/10/04 13:58:36;;;;;;;0.10;0.10;;;;;;;;;;5011993;28;20408;-68
2022/10/04 14:01:16;;;;;;;0.10;0.10;;;;;;;;;;5001551;28;20242;-67
2022/10/04 14:03:50;;;;;;;0.10;0.10;;;;;;;;;;5010702;28;20511;-68
2022/10/04 14:06:35;;;;;;;0.10;0.10;;;;;;;;;;5003159;28;20256;-69
2022/10/04 14:09:25;;;;;;;0.10;0.10;;;;;;;;;;5008119;28;20242;-67
2022/10/04 14:12:10;;;;;;;0.10;0.10;;;;;;;;;;4997555;28;20237;-67
2022/10/04 14:14:55;;;;;;;0.10;0.10;;;;;;;;;;5004210;28;20233;-69
2022/10/04 14:17:39;;;;;;;0.05;0.05;;;;;;;;;;5009479;28;20241;-69
2022/10/04 14:20:22;;;;;;;0.03;0.03;;;;;;;;;;5002973;28;20282;-71
2022/10/04 14:22:57;;;;;;;0.10;0.10;;;;;;;;;;5004058;28;20215;-68
2022/10/04 14:25:40;;;;;;;0.10;0.10;;;;;;;;;;4996603;28;20231;-68
2022/10/04 14:28:16;;;;;;;0.10;0.10;;;;;;;;;;5014916;28;20426;-68
2022/10/04 14:30:53;;;;;;;0.10;0.10;;;;;;;;;;4998876;28;20523;-67
2022/10/04 14:33:31;;;;;;;0.03;0.03;;;;;;;;;;5013083;28;20208;-68
2022/10/04 14:36:07;;;;;;;0.00;0.00;;;;;;;;;;5000212;28;20263;-68
2022/10/04 14:38:44;;;;;;;0.10;0.10;;;;;;;;;;5010175;28;20202;-68
2022/10/04 14:41:24;;;;;;;0.10;0.10;;;;;;;;;;5002115;28;20452;-68
2022/10/04 14:44:12;;;;;;;0.10;0.10;;;;;;;;;;5008749;28;20218;-68
2022/10/04 14:46:43;;;;;;;0.10;0.10;;;;;;;;;;5005364;28;20288;-69
2022/10/04 14:49:17;;;;;;;0.10;0.10;;;;;;;;;;5006569;28;20197;-67
2022/10/04 14:51:48;;;;;;;0.05;0.05;;;;;;;;;;5005930;28;20568;-67
2022/10/04 14:54:18;;;;;;;0.05;0.05;;;;;;;;;;5005942;28;20360;-69
2022/10/04 14:56:52;;;;;;;0.05;0.05;;;;;;;;;;5006200;28;20242;-68
2022/10/04 14:59:36;;;;;;;0.10;0.10;;;;;;;;;;5004996;28;20254;-67
2022/10/04 15:02:20;;;;;;;0.10;0.10;;;;;;;;;;4982530;28;20322;-67
2022/10/04 15:05:04;;;;;;;0.10;0.10;;;;;;;;;;4973733;28;20325;-68
2022/10/04 15:07:32;;;;;;;0.10;0.10;;;;;;;;;;4992293;28;20277;-67
2022/10/04 15:10:06;;;;;;;0.03;0.03;;;;;;;;;;5003571;28;20401;-69
2022/10/04 15:12:45;;;;;;;0.10;0.10;;;;;;;;;;4992221;28;20227;-69
2022/10/04 15:15:22;;;;;;;0.00;0.00;;;;;;;;;;4994539;28;20349;-69
2022/10/04 15:17:56;;;;;;;0.03;0.03;;;;;;;;;;5016147;28;20241;-68
2022/10/04 15:20:25;;;;;;;0.10;0.10;;;;;;;;;;4995581;28;20194;-68
2022/10/04 15:22:53;;;;;;;0.05;0.05;;;;;;;;;;5015779;28;20215;-67
2022/10/04 15:25:40;;;;;;;0.10;0.10;;;;;;;;;;4995238;28;20507;-67
2022/10/04 15:28:11;;;;;;;0.10;0.10;;;;;;;;;;5013712;28;20211;-67
2022/10/04 15:30:46;;;;;;;0.10;0.10;;;;;;;;;;4997642;28;20265;-69
2022/10/04 15:33:20;;;;;;;0.10;0.10;;;;;;;;;;5001896;28;20225;-68
2022/10/04 15:35:51;;;;;;;0.00;0.00;;;;;;;;;;4998466;28;20336;-68